createdAt,value
2022-08-07T00:02:39.803Z,17.12
2022-08-07T00:05:06.144Z,17.13
2022-08-07T00:07:40.486Z,17.15
2022-08-07T00:10:27.249Z,17.07
2022-08-07T00:13:02.271Z,16.85
2022-08-07T00:15:46.702Z,16.82
2022-08-07T00:18:24.316Z,16.80
2022-08-07T00:20:56.825Z,16.81
2022-08-07T00:23:28.280Z,16.66
2022-08-07T00:26:02.801Z,16.68
2022-08-07T00:28:45.917Z,16.67
2022-08-07T00:31:37.493Z,16.67
2022-08-07T00:34:08.547Z,16.70
2022-08-07T00:36:43.217Z,16.65
2022-08-07T00:39:17.115Z,16.38
2022-08-07T00:42:01.481Z,16.40
2022-08-07T00:44:35.110Z,16.41
2022-08-07T00:47:16.185Z,16.42
2022-08-07T00:52:53.025Z,16.28
2022-08-07T00:55:25.502Z,16.11
2022-08-07T00:58:12.846Z,16.20
2022-08-07T01:00:54.077Z,16.18
2022-08-07T01:03:55.609Z,16.20
2022-08-07T01:06:14.280Z,16.27
2022-08-07T01:08:53.790Z,16.30
2022-08-07T01:12:09.828Z,16.30
2022-08-07T01:14:16.604Z,16.29
2022-08-07T01:16:47.970Z,16.24
2022-08-07T01:19:19.818Z,16.31
2022-08-07T01:21:55.345Z,16.14
2022-08-07T01:24:26.157Z,16.16
2022-08-07T01:26:56.723Z,16.13
2022-08-07T01:29:33.701Z,16.06
2022-08-07T01:32:12.513Z,16.11
2022-08-07T01:34:47.204Z,15.97
2022-08-07T01:37:18.994Z,15.99
2022-08-07T01:39:50.419Z,15.97
2022-08-07T01:42:40.088Z,15.93
2022-08-07T01:45:17.798Z,15.84
2022-08-07T01:48:18.534Z,15.82
2022-08-07T01:50:40.319Z,15.84
2022-08-07T01:53:21.632Z,15.78
2022-08-07T01:56:12.611Z,15.76
2022-08-07T01:58:50.201Z,15.75
2022-08-07T02:02:00.190Z,15.76
2022-08-07T02:04:23.002Z,15.79
2022-08-07T02:06:59.855Z,15.73
2022-08-07T02:09:53.226Z,15.53
2022-08-07T02:12:29.240Z,15.55
2022-08-07T02:15:06.729Z,15.62
2022-08-07T02:17:39.414Z,15.65
2022-08-07T02:20:17.477Z,15.64
2022-08-07T02:22:55.393Z,15.61
2022-08-07T02:26:10.315Z,15.69
2022-08-07T02:28:24.388Z,15.75
2022-08-07T02:30:55.692Z,15.90
2022-08-07T02:33:41.906Z,15.98
2022-08-07T02:36:28.869Z,16.06
2022-08-07T02:39:15.934Z,16.16
2022-08-07T02:41:54.425Z,16.19
2022-08-07T02:44:34.432Z,16.17
2022-08-07T02:47:06.806Z,16.48
2022-08-07T02:49:57.466Z,16.89
2022-08-07T02:52:32.553Z,17.10
2022-08-07T02:55:27.894Z,17.04
2022-08-07T02:58:05.633Z,17.40
2022-08-07T03:00:37.555Z,17.65
2022-08-07T03:03:13.414Z,18.00
2022-08-07T03:05:43.982Z,18.14
2022-08-07T03:08:15.713Z,18.32
2022-08-07T03:10:47.457Z,18.52
2022-08-07T03:13:20.179Z,18.45
2022-08-07T03:15:56.697Z,18.36
2022-08-07T03:18:34.715Z,18.36
2022-08-07T03:21:11.276Z,18.46
2022-08-07T03:24:19.060Z,18.56
2022-08-07T03:26:35.324Z,18.49
2022-08-07T03:29:15.677Z,18.48
2022-08-07T03:31:49.833Z,18.37
2022-08-07T03:34:22.294Z,18.22
2022-08-07T03:36:54.691Z,18.03
2022-08-07T03:39:59.673Z,17.86
2022-08-07T03:42:17.913Z,17.84
2022-08-07T03:44:53.529Z,17.82
2022-08-07T03:47:23.945Z,17.72
2022-08-07T03:49:53.732Z,17.75
2022-08-07T03:54:33.014Z,17.79
2022-08-07T03:57:03.303Z,17.97
2022-08-07T03:59:33.888Z,18.24
2022-08-07T04:02:04.242Z,18.54
2022-08-07T04:04:33.897Z,18.87
2022-08-07T04:07:16.610Z,19.08
2022-08-07T04:09:50.695Z,19.23
2022-08-07T04:12:27.091Z,19.36
2022-08-07T04:15:00.744Z,19.42
2022-08-07T04:18:30.898Z,19.59
2022-08-07T04:20:20.596Z,19.68
2022-08-07T04:22:53.331Z,19.76
2022-08-07T04:25:35.945Z,19.86
2022-08-07T04:28:13.245Z,19.98
2022-08-07T04:30:56.638Z,20.05
2022-08-07T04:33:28.152Z,20.08
2022-08-07T04:35:58.419Z,20.14
2022-08-07T04:38:29.236Z,20.17
2022-08-07T04:41:00.092Z,20.17
2022-08-07T04:44:10.325Z,20.29
2022-08-07T04:46:34.445Z,20.45
2022-08-07T04:49:17.900Z,20.61
2022-08-07T04:52:05.237Z,20.76
2022-08-07T04:54:41.122Z,20.96
2022-08-07T04:58:12.099Z,21.18
2022-08-07T05:00:31.577Z,21.38
2022-08-07T05:03:17.265Z,21.53
2022-08-07T05:06:19.321Z,21.68
2022-08-07T05:09:01.935Z,21.79
2022-08-07T05:11:58.192Z,21.90
2022-08-07T05:14:55.861Z,21.96
2022-08-07T05:17:51.899Z,22.11
2022-08-07T05:20:16.629Z,22.29
2022-08-07T05:22:49.383Z,22.44
2022-08-07T05:25:35.596Z,22.47
2022-08-07T05:28:20.061Z,22.55
2022-08-07T05:30:53.779Z,22.58
2022-08-07T05:33:25.937Z,22.72
2022-08-07T05:35:57.706Z,22.71
2022-08-07T05:38:59.955Z,22.79
2022-08-07T05:41:18.526Z,23.02
2022-08-07T05:44:12.698Z,23.09
2022-08-07T05:46:45.971Z,23.12
2022-08-07T05:49:22.654Z,23.19
2022-08-07T05:51:52.290Z,23.12
2022-08-07T05:54:30.744Z,23.07
2022-08-07T05:57:03.578Z,23.08
2022-08-07T05:59:57.576Z,23.04
2022-08-07T06:02:32.916Z,23.26
2022-08-07T06:05:07.450Z,23.57
2022-08-07T06:08:13.535Z,23.49
2022-08-07T06:10:31.173Z,23.42
2022-08-07T06:13:02.448Z,23.46
2022-08-07T06:15:38.976Z,23.45
2022-08-07T06:18:14.801Z,23.44
2022-08-07T06:20:50.496Z,23.66
2022-08-07T06:24:36.799Z,23.76
2022-08-07T06:26:27.473Z,23.78
2022-08-07T06:29:01.453Z,23.76
2022-08-07T06:31:46.611Z,23.89
2022-08-07T06:34:21.476Z,24.00
2022-08-07T06:36:52.108Z,24.34
2022-08-07T06:40:17.985Z,24.50
2022-08-07T06:42:17.761Z,24.27
2022-08-07T06:44:50.968Z,24.14
2022-08-07T06:47:22.024Z,24.23
2022-08-07T06:49:58.631Z,24.55
2022-08-07T06:55:27.735Z,24.75
2022-08-07T06:56:49.375Z,25.00
2022-08-07T07:00:14.718Z,24.96
2022-08-07T07:02:48.510Z,24.49
2022-08-07T07:05:13.043Z,24.51
2022-08-07T07:07:59.947Z,24.56
2022-08-07T07:10:37.148Z,24.18
2022-08-07T07:13:14.628Z,23.77
2022-08-07T07:15:51.900Z,23.84
2022-08-07T07:18:47.967Z,24.14
2022-08-07T07:21:27.002Z,24.34
2022-08-07T07:24:11.242Z,24.54
2022-08-07T07:26:51.963Z,24.60
2022-08-07T07:29:56.834Z,24.85
2022-08-07T07:32:17.808Z,24.95
2022-08-07T07:34:51.056Z,25.07
2022-08-07T07:37:45.133Z,25.36
2022-08-07T07:40:18.638Z,25.53
2022-08-07T07:42:54.325Z,25.56
2022-08-07T07:46:38.266Z,25.59
2022-08-07T07:48:35.026Z,25.49
2022-08-07T07:51:07.738Z,25.61
2022-08-07T07:53:51.899Z,25.76
2022-08-07T07:56:30.071Z,26.08
2022-08-07T07:59:05.932Z,25.79
2022-08-07T08:02:02.576Z,25.75
2022-08-07T08:04:31.272Z,25.63
2022-08-07T08:07:07.605Z,25.73
2022-08-07T08:09:52.151Z,25.79
2022-08-07T08:12:52.077Z,25.88
2022-08-07T08:15:23.227Z,25.89
2022-08-07T08:18:36.943Z,26.02
2022-08-07T08:20:43.669Z,26.44
2022-08-07T08:23:37.273Z,26.35
2022-08-07T08:26:22.954Z,26.50
2022-08-07T08:28:57.074Z,26.68
2022-08-07T08:31:58.666Z,26.83
2022-08-07T08:34:29.195Z,26.61
2022-08-07T08:37:00.121Z,26.82
2022-08-07T08:39:38.948Z,27.01
2022-08-07T08:42:29.078Z,26.96
2022-08-07T08:45:13.098Z,26.67
2022-08-07T08:47:55.549Z,26.76
2022-08-07T08:50:39.366Z,26.66
2022-08-07T08:53:20.635Z,26.34
2022-08-07T08:55:58.978Z,26.41
2022-08-07T08:58:41.910Z,26.37
2022-08-07T09:01:20.420Z,26.32
2022-08-07T09:04:01.602Z,26.68
2022-08-07T09:06:47.790Z,26.64
2022-08-07T09:09:57.436Z,26.95
2022-08-07T09:12:53.243Z,26.95
2022-08-07T09:16:23.680Z,27.23
2022-08-07T09:19:51.609Z,27.47
2022-08-07T09:24:32.713Z,27.22
2022-08-07T09:25:28.032Z,27.08
2022-08-07T09:30:00.559Z,27.53
2022-08-07T09:31:05.873Z,27.84
2022-08-07T09:34:01.040Z,27.48
2022-08-07T09:36:37.059Z,26.96
2022-08-07T09:39:54.729Z,26.73
2022-08-07T09:42:36.454Z,26.45
2022-08-07T09:47:27.512Z,26.38
2022-08-07T09:48:43.970Z,26.44
2022-08-07T09:54:02.390Z,26.86
2022-08-07T09:57:46.869Z,27.17
2022-08-07T10:00:18.791Z,27.69
2022-08-07T10:04:05.432Z,27.95
2022-08-07T10:06:40.572Z,27.73
2022-08-07T10:10:00.179Z,27.68
2022-08-07T10:13:03.672Z,27.55
2022-08-07T10:15:51.782Z,27.86
2022-08-07T10:18:53.345Z,27.92
2022-08-07T10:22:02.778Z,28.31
2022-08-07T10:25:05.596Z,28.25
2022-08-07T10:28:02.478Z,28.60
2022-08-07T10:30:45.615Z,28.46
2022-08-07T10:34:14.242Z,28.06
2022-08-07T10:36:50.192Z,27.65
2022-08-07T10:39:41.688Z,27.60
2022-08-07T10:42:37.790Z,27.72
2022-08-07T10:45:44.798Z,27.84
2022-08-07T10:48:34.940Z,27.92
2022-08-07T10:51:16.265Z,27.48
2022-08-07T10:54:15.101Z,27.30
2022-08-07T10:57:01.625Z,27.46
2022-08-07T10:59:55.039Z,27.35
2022-08-07T11:02:37.917Z,27.17
2022-08-07T11:05:35.931Z,26.92
2022-08-07T11:08:31.519Z,26.82
2022-08-07T11:11:10.888Z,26.52
2022-08-07T11:14:56.582Z,26.39
2022-08-07T11:16:51.019Z,26.36
2022-08-07T11:19:31.937Z,26.20
2022-08-07T11:22:27.395Z,25.95
2022-08-07T11:25:13.275Z,25.65
2022-08-07T11:28:01.326Z,25.54
2022-08-07T11:30:44.231Z,25.16
2022-08-07T11:33:59.580Z,25.05
2022-08-07T11:36:39.511Z,25.10
2022-08-07T11:39:24.698Z,24.94
2022-08-07T11:42:08.256Z,25.06
2022-08-07T11:44:59.129Z,25.14
2022-08-07T11:47:56.692Z,25.06
2022-08-07T11:50:44.538Z,25.07
2022-08-07T11:54:01.201Z,25.06
2022-08-07T11:56:48.623Z,25.27
2022-08-07T12:00:11.551Z,25.32
2022-08-07T12:03:41.390Z,25.25
2022-08-07T12:06:44.901Z,25.36
2022-08-07T12:09:33.579Z,25.75
2022-08-07T12:12:11.660Z,26.36
2022-08-07T12:14:56.126Z,26.82
2022-08-07T12:17:58.962Z,27.28
2022-08-07T12:20:36.399Z,26.83
2022-08-07T12:24:05.517Z,26.72
2022-08-07T12:26:35.381Z,26.86
2022-08-07T12:29:37.215Z,26.55
2022-08-07T12:32:19.284Z,26.48
2022-08-07T12:34:55.943Z,26.09
2022-08-07T12:38:09.661Z,26.09
2022-08-07T12:40:46.538Z,25.87
2022-08-07T12:44:04.583Z,25.75
2022-08-07T12:46:26.192Z,25.69
2022-08-07T12:49:25.762Z,25.54
2022-08-07T12:54:02.621Z,25.46
2022-08-07T12:56:55.288Z,25.58
2022-08-07T12:59:33.313Z,25.67
2022-08-07T13:03:01.273Z,25.54
2022-08-07T13:06:02.613Z,25.56
2022-08-07T13:08:56.851Z,25.50
2022-08-07T13:12:02.672Z,25.69
2022-08-07T13:15:04.764Z,25.67
2022-08-07T13:17:44.143Z,25.59
2022-08-07T13:20:27.769Z,25.58
2022-08-07T13:23:09.977Z,25.34
2022-08-07T13:26:10.521Z,25.18
2022-08-07T13:28:55.286Z,24.86
2022-08-07T13:31:46.109Z,24.52
2022-08-07T13:34:39.061Z,24.16
2022-08-07T13:37:25.023Z,23.82
2022-08-07T13:40:35.176Z,23.54
2022-08-07T13:43:11.842Z,23.32
2022-08-07T13:46:10.833Z,23.22
2022-08-07T13:48:39.661Z,23.31
2022-08-07T13:51:28.190Z,23.48
2022-08-07T13:54:03.792Z,23.64
2022-08-07T13:56:41.267Z,23.68
2022-08-07T13:59:31.589Z,23.65
2022-08-07T14:02:10.383Z,23.71
2022-08-07T14:04:54.336Z,23.83
2022-08-07T14:07:28.459Z,23.89
2022-08-07T14:10:20.404Z,23.95
2022-08-07T14:13:00.554Z,23.96
2022-08-07T14:15:36.551Z,23.98
2022-08-07T14:18:23.895Z,23.99
2022-08-07T14:21:11.668Z,24.10
2022-08-07T14:24:00.885Z,24.17
2022-08-07T14:26:50.724Z,24.26
2022-08-07T14:30:04.985Z,24.42
2022-08-07T14:32:19.267Z,24.48
2022-08-07T14:34:52.565Z,24.57
2022-08-07T14:37:23.717Z,24.77
2022-08-07T14:40:25.774Z,24.94
2022-08-07T14:43:54.894Z,25.02
2022-08-07T14:48:48.521Z,24.97
2022-08-07T14:51:24.177Z,24.93
2022-08-07T14:54:33.107Z,24.84
2022-08-07T14:57:08.566Z,24.93
2022-08-07T15:00:03.337Z,25.08
2022-08-07T15:02:34.524Z,25.10
2022-08-07T15:08:00.294Z,25.16
2022-08-07T15:10:31.433Z,25.12
2022-08-07T15:16:11.467Z,25.05
2022-08-07T15:18:48.055Z,24.97
2022-08-07T15:21:59.324Z,24.88
2022-08-07T15:27:15.775Z,25.12
2022-08-07T15:30:04.835Z,25.23
2022-08-07T15:33:01.289Z,25.25
2022-08-07T15:35:40.690Z,25.22
2022-08-07T15:38:51.383Z,25.22
2022-08-07T15:42:43.379Z,25.08
2022-08-07T15:44:23.727Z,25.11
2022-08-07T15:47:03.295Z,25.15
2022-08-07T15:50:04.234Z,25.21
2022-08-07T15:53:56.854Z,25.14
2022-08-07T15:56:36.954Z,25.02
2022-08-07T15:59:17.431Z,24.85
2022-08-07T16:02:01.847Z,24.43
2022-08-07T16:04:36.191Z,23.84
2022-08-07T16:08:30.355Z,23.32
2022-08-07T16:10:15.508Z,22.91
2022-08-07T16:13:04.897Z,22.63
2022-08-07T16:16:48.725Z,22.27
2022-08-07T16:19:20.858Z,21.99
2022-08-07T16:22:55.827Z,21.68
2022-08-07T16:25:56.784Z,21.37
2022-08-07T16:30:05.974Z,21.23
2022-08-07T16:32:00.703Z,21.07
2022-08-07T16:34:48.492Z,21.07
2022-08-07T16:38:44.461Z,20.83
2022-08-07T16:41:41.201Z,20.66
2022-08-07T16:45:14.750Z,20.42
2022-08-07T16:48:28.609Z,20.60
2022-08-07T16:51:57.730Z,20.67
2022-08-07T16:54:32.953Z,20.61
2022-08-07T16:58:02.644Z,20.52
2022-08-07T17:00:43.571Z,20.39
2022-08-07T17:03:58.275Z,20.34
2022-08-07T17:06:34.291Z,20.33
2022-08-07T17:10:06.043Z,20.10
2022-08-07T17:12:34.330Z,20.00
2022-08-07T17:15:21.362Z,19.98
2022-08-07T17:18:12.701Z,20.05
2022-08-07T17:20:46.586Z,20.16
2022-08-07T17:23:38.884Z,19.95
2022-08-07T17:26:24.249Z,19.86
2022-08-07T17:29:18.399Z,19.84
2022-08-07T17:32:31.211Z,19.91
2022-08-07T17:35:50.916Z,19.85
2022-08-07T17:38:33.520Z,19.89
2022-08-07T17:42:00.574Z,19.96
2022-08-07T17:44:33.270Z,20.09
2022-08-07T17:47:16.836Z,20.02
2022-08-07T17:49:55.860Z,20.03
2022-08-07T17:52:39.901Z,20.04
2022-08-07T17:55:14.114Z,19.99
2022-08-07T17:57:58.752Z,19.91
2022-08-07T18:00:49.071Z,19.78
2022-08-07T18:04:04.658Z,19.73
2022-08-07T18:06:38.168Z,19.76
2022-08-07T18:09:09.544Z,19.85
2022-08-07T18:12:17.844Z,19.72
2022-08-07T18:14:52.894Z,19.42
2022-08-07T18:18:36.519Z,19.32
2022-08-07T18:21:07.145Z,19.30
2022-08-07T18:23:43.689Z,19.36
2022-08-07T18:26:26.963Z,19.14
2022-08-07T18:30:04.692Z,19.07
2022-08-07T18:32:21.983Z,19.05
2022-08-07T18:35:12.872Z,19.17
2022-08-07T18:38:55.182Z,19.15
2022-08-07T18:41:17.040Z,19.20
2022-08-07T18:44:03.883Z,19.13
2022-08-07T18:46:58.223Z,19.10
2022-08-07T18:50:31.465Z,18.96
2022-08-07T18:54:27.595Z,18.86
2022-08-07T18:57:30.665Z,18.80
2022-08-07T19:00:32.425Z,18.98
2022-08-07T19:03:12.211Z,19.12
2022-08-07T19:06:04.103Z,19.26
2022-08-07T19:08:48.312Z,19.26
2022-08-07T19:11:35.022Z,19.29
2022-08-07T19:14:17.262Z,19.37
2022-08-07T19:17:07.645Z,19.50
2022-08-07T19:19:55.115Z,19.57
2022-08-07T19:22:34.226Z,19.53
2022-08-07T19:26:23.356Z,19.54
2022-08-07T19:28:57.147Z,19.69
2022-08-07T19:31:37.428Z,19.65
2022-08-07T19:34:02.856Z,19.68
2022-08-07T19:36:42.561Z,19.83
2022-08-07T19:39:56.126Z,19.79
2022-08-07T19:42:24.544Z,19.85
2022-08-07T19:44:56.953Z,19.98
2022-08-07T19:47:36.681Z,19.95
2022-08-07T19:50:41.135Z,19.93
2022-08-07T19:53:01.011Z,19.91
2022-08-07T19:55:56.353Z,20.16
2022-08-07T19:58:22.497Z,20.27
2022-08-07T20:01:01.686Z,20.40
2022-08-07T20:03:35.209Z,20.52
2022-08-07T20:06:15.312Z,20.46
2022-08-07T20:09:03.070Z,20.42
2022-08-07T20:12:22.849Z,20.39
2022-08-07T20:14:32.114Z,20.19
2022-08-07T20:17:06.082Z,20.09
2022-08-07T20:19:48.034Z,20.09
2022-08-07T20:22:34.108Z,19.94
2022-08-07T20:25:19.297Z,19.68
2022-08-07T20:27:58.562Z,19.53
2022-08-07T20:30:35.094Z,19.33
2022-08-07T20:33:24.494Z,19.15
2022-08-07T20:36:03.059Z,19.03
2022-08-07T20:38:35.049Z,18.78
2022-08-07T20:41:08.370Z,18.71
2022-08-07T20:43:47.674Z,18.67
2022-08-07T20:46:26.656Z,18.59
2022-08-07T20:49:57.994Z,18.66
2022-08-07T20:51:51.463Z,18.54
2022-08-07T20:54:29.998Z,18.43
2022-08-07T20:57:05.322Z,18.32
2022-08-07T21:00:06.431Z,18.38
2022-08-07T21:02:53.891Z,18.29
2022-08-07T21:05:50.550Z,18.17
2022-08-07T21:08:38.246Z,18.16
2022-08-07T21:11:14.806Z,18.23
2022-08-07T21:14:29.365Z,18.10
2022-08-07T21:16:56.850Z,18.02
2022-08-07T21:19:51.246Z,17.84
2022-08-07T21:22:29.574Z,17.59
2022-08-07T21:25:13.338Z,17.53
2022-08-07T21:28:09.492Z,17.37
2022-08-07T21:30:57.875Z,17.36
2022-08-07T21:33:41.894Z,17.34
2022-08-07T21:36:31.784Z,17.28
2022-08-07T21:39:47.714Z,17.19
2022-08-07T21:42:48.139Z,17.12
2022-08-07T21:46:08.016Z,17.07
2022-08-07T21:48:28.526Z,17.05
2022-08-07T21:53:54.755Z,16.86
2022-08-07T21:56:48.256Z,16.80
2022-08-07T22:00:05.225Z,16.76
2022-08-07T22:02:35.729Z,16.80
2022-08-07T22:05:08.847Z,16.79
2022-08-07T22:07:58.484Z,16.59
2022-08-07T22:10:35.567Z,16.48
2022-08-07T22:13:09.011Z,16.47
2022-08-07T22:16:44.090Z,16.38
2022-08-07T22:18:46.436Z,16.41
2022-08-07T22:21:21.179Z,16.48
2022-08-07T22:23:59.793Z,16.47
2022-08-07T22:26:44.395Z,16.39
2022-08-07T22:29:38.132Z,16.31
2022-08-07T22:32:24.492Z,16.31
2022-08-07T22:34:57.438Z,16.24
2022-08-07T22:38:04.150Z,16.22
2022-08-07T22:40:44.219Z,16.35
2022-08-07T22:43:18.714Z,16.25
2022-08-07T22:46:46.939Z,16.03
2022-08-07T22:49:33.688Z,16.01
2022-08-07T22:52:39.919Z,15.95
2022-08-07T22:55:40.550Z,16.00
2022-08-07T22:58:56.055Z,15.98
2022-08-07T23:02:17.030Z,15.94
2022-08-07T23:06:08.954Z,15.96
2022-08-07T23:08:32.684Z,15.94
2022-08-07T23:11:24.617Z,15.96
2022-08-07T23:14:24.651Z,15.96
2022-08-07T23:17:29.666Z,16.08
2022-08-07T23:20:53.162Z,16.05
2022-08-07T23:24:17.127Z,16.38
2022-08-07T23:27:08.663Z,16.79
2022-08-07T23:30:37.309Z,16.59
2022-08-07T23:34:34.865Z,16.49
2022-08-07T23:36:37.345Z,16.36
2022-08-07T23:39:14.440Z,16.08
2022-08-07T23:42:04.211Z,15.82
2022-08-07T23:45:49.869Z,15.51
2022-08-07T23:48:35.520Z,15.44
2022-08-07T23:52:55.982Z,15.37
2022-08-07T23:54:11.719Z,15.20
2022-08-07T23:57:03.011Z,15.07
